sensor_id;sensor_type;location;lat;lon;timestamp;pressure;altitude;pressure_sealevel;temperature;humidity
22743;BME280;11538;48.884;8.696;2023-09-19T00:01:52;98327.34;;;19.46;91.85
22743;BME280;11538;48.884;8.696;2023-09-19T00:04:19;98321.03;;;19.46;92.20
22743;BME280;11538;48.884;8.696;2023-09-19T00:06:50;98330.09;;;19.46;91.67
22743;BME280;11538;48.884;8.696;2023-09-19T00:09:17;98333.19;;;19.44;91.45
22743;BME280;11538;48.884;8.696;2023-09-19T00:11:44;98334.34;;;19.43;91.58
22743;BME280;11538;48.884;8.696;2023-09-19T00:14:14;98334.34;;;19.43;91.97
22743;BME280;11538;48.884;8.696;2023-09-19T00:16:41;98335.16;;;19.44;92.31
22743;BME280;11538;48.884;8.696;2023-09-19T00:19:08;98337.44;;;19.38;92.45
22743;BME280;11538;48.884;8.696;2023-09-19T00:21:35;98342.94;;;19.38;93.26
22743;BME280;11538;48.884;8.696;2023-09-19T00:24:05;98351.19;;;19.38;92.37
22743;BME280;11538;48.884;8.696;2023-09-19T00:26:33;98347.66;;;19.38;92.45
22743;BME280;11538;48.884;8.696;2023-09-19T00:29:01;98346.00;;;19.33;92.13
22743;BME280;11538;48.884;8.696;2023-09-19T00:31:35;98344.81;;;19.34;92.46
22743;BME280;11538;48.884;8.696;2023-09-19T00:34:04;98342.41;;;19.29;92.09
22743;BME280;11538;48.884;8.696;2023-09-19T00:36:37;98349.78;;;19.25;92.76
22743;BME280;11538;48.884;8.696;2023-09-19T00:39:07;98352.53;;;19.25;92.91
22743;BME280;11538;48.884;8.696;2023-09-19T00:41:35;98343.56;;;19.28;92.93
22743;BME280;11538;48.884;8.696;2023-09-19T00:44:05;98347.88;;;19.29;93.13
22743;BME280;11538;48.884;8.696;2023-09-19T00:46:32;98348.63;;;19.26;93.38
22743;BME280;11538;48.884;8.696;2023-09-19T00:49:00;98343.94;;;19.26;93.39
22743;BME280;11538;48.884;8.696;2023-09-19T00:51:27;98340.38;;;19.26;93.62
22743;BME280;11538;48.884;8.696;2023-09-19T00:53:54;98356.03;;;19.22;94.12
22743;BME280;11538;48.884;8.696;2023-09-19T00:56:22;98365.44;;;19.21;94.50
22743;BME280;11538;48.884;8.696;2023-09-19T00:58:50;98356.34;;;19.17;94.48
22743;BME280;11538;48.884;8.696;2023-09-19T01:01:17;98357.44;;;19.12;95.24
22743;BME280;11538;48.884;8.696;2023-09-19T01:03:45;98369.66;;;19.14;95.57
22743;BME280;11538;48.884;8.696;2023-09-19T01:06:12;98368.50;;;19.16;95.98
22743;BME280;11538;48.884;8.696;2023-09-19T01:08:39;98379.13;;;19.17;95.62
22743;BME280;11538;48.884;8.696;2023-09-19T01:11:17;98381.44;;;19.15;95.74
22743;BME280;11538;48.884;8.696;2023-09-19T01:13:57;98384.50;;;19.10;96.27
22743;BME280;11538;48.884;8.696;2023-09-19T01:16:55;98382.06;;;19.05;97.26
22743;BME280;11538;48.884;8.696;2023-09-19T01:20:11;98385.09;;;18.99;97.69
22743;BME280;11538;48.884;8.696;2023-09-19T01:26:06;98394.50;;;18.98;97.86
22743;BME280;11538;48.884;8.696;2023-09-19T01:29:12;98396.94;;;19.04;97.53
22743;BME280;11538;48.884;8.696;2023-09-19T01:31:49;98402.84;;;19.02;97.86
22743;BME280;11538;48.884;8.696;2023-09-19T01:34:16;98392.91;;;18.97;97.72
22743;BME280;11538;48.884;8.696;2023-09-19T01:36:44;98394.88;;;18.97;97.97
22743;BME280;11538;48.884;8.696;2023-09-19T01:39:14;98401.09;;;18.94;98.31
22743;BME280;11538;48.884;8.696;2023-09-19T01:44:51;98408.81;;;18.88;98.90
22743;BME280;11538;48.884;8.696;2023-09-19T01:47:36;98415.47;;;18.87;98.83
22743;BME280;11538;48.884;8.696;2023-09-19T01:50:32;98411.94;;;18.87;98.88
22743;BME280;11538;48.884;8.696;2023-09-19T01:53:26;98422.22;;;18.90;98.68
22743;BME280;11538;48.884;8.696;2023-09-19T01:56:05;98420.50;;;18.81;99.13
22743;BME280;11538;48.884;8.696;2023-09-19T01:59:08;98424.69;;;18.75;99.32
22743;BME280;11538;48.884;8.696;2023-09-19T02:01:28;98425.03;;;18.74;99.45
22743;BME280;11538;48.884;8.696;2023-09-19T02:03:56;98436.13;;;18.77;99.56
22743;BME280;11538;48.884;8.696;2023-09-19T02:06:23;98431.78;;;18.76;99.19
22743;BME280;11538;48.884;8.696;2023-09-19T02:08:54;98431.06;;;18.79;98.92
22743;BME280;11538;48.884;8.696;2023-09-19T02:11:21;98428.31;;;18.79;98.98
22743;BME280;11538;48.884;8.696;2023-09-19T02:13:48;98428.72;;;18.81;98.81
22743;BME280;11538;48.884;8.696;2023-09-19T02:16:20;98421.34;;;18.85;98.82
22743;BME280;11538;48.884;8.696;2023-09-19T02:18:49;98430.03;;;18.88;98.65
22743;BME280;11538;48.884;8.696;2023-09-19T02:21:19;98435.53;;;18.88;99.05
22743;BME280;11538;48.884;8.696;2023-09-19T02:23:48;98431.63;;;18.89;98.35
22743;BME280;11538;48.884;8.696;2023-09-19T02:26:15;98428.50;;;18.90;98.62
22743;BME280;11538;48.884;8.696;2023-09-19T02:28:42;98426.16;;;18.92;98.15
22743;BME280;11538;48.884;8.696;2023-09-19T02:31:09;98434.06;;;18.94;98.53
22743;BME280;11538;48.884;8.696;2023-09-19T02:33:37;98430.50;;;18.93;97.93
22743;BME280;11538;48.884;8.696;2023-09-19T02:36:05;98438.13;;;19.00;97.63
22743;BME280;11538;48.884;8.696;2023-09-19T02:38:32;98435.38;;;19.00;97.30
22743;BME280;11538;48.884;8.696;2023-09-19T02:40:59;98432.91;;;18.95;97.36
22743;BME280;11538;48.884;8.696;2023-09-19T02:43:27;98440.78;;;18.96;97.28
22743;BME280;11538;48.884;8.696;2023-09-19T02:45:54;98448.31;;;18.99;97.42
22743;BME280;11538;48.884;8.696;2023-09-19T02:48:21;98440.50;;;19.02;97.48
22743;BME280;11538;48.884;8.696;2023-09-19T02:50:52;98448.41;;;19.03;97.63
22743;BME280;11538;48.884;8.696;2023-09-19T02:53:19;98443.69;;;19.04;97.61
22743;BME280;11538;48.884;8.696;2023-09-19T02:55:49;98452.34;;;19.06;97.72
22743;BME280;11538;48.884;8.696;2023-09-19T02:58:17;98453.88;;;19.03;97.73
22743;BME280;11538;48.884;8.696;2023-09-19T03:00:45;98458.22;;;19.04;97.38
22743;BME280;11538;48.884;8.696;2023-09-19T03:03:17;98453.03;;;18.99;98.09
22743;BME280;11538;48.884;8.696;2023-09-19T03:05:44;98463.13;;;18.95;98.19
22743;BME280;11538;48.884;8.696;2023-09-19T03:08:14;98465.50;;;18.96;97.72
22743;BME280;11538;48.884;8.696;2023-09-19T03:10:42;98461.63;;;18.97;98.10
22743;BME280;11538;48.884;8.696;2023-09-19T03:13:09;98462.06;;;18.99;98.06
22743;BME280;11538;48.884;8.696;2023-09-19T03:15:36;98467.94;;;18.98;97.98
22743;BME280;11538;48.884;8.696;2023-09-19T03:18:06;98467.94;;;18.98;98.53
22743;BME280;11538;48.884;8.696;2023-09-19T03:20:33;98468.63;;;18.95;98.60
22743;BME280;11538;48.884;8.696;2023-09-19T03:23:00;98468.63;;;18.95;99.00
22743;BME280;11538;48.884;8.696;2023-09-19T03:25:26;98474.59;;;18.97;98.98
22743;BME280;11538;48.884;8.696;2023-09-19T03:27:56;98469.88;;;18.97;98.77
22743;BME280;11538;48.884;8.696;2023-09-19T03:30:24;98473.84;;;19.00;99.02
22743;BME280;11538;48.884;8.696;2023-09-19T03:32:53;98480.94;;;19.01;99.27
22743;BME280;11538;48.884;8.696;2023-09-19T03:35:20;98464.06;;;19.03;99.14
22743;BME280;11538;48.884;8.696;2023-09-19T03:37:47;98475.44;;;19.01;99.69
22743;BME280;11538;48.884;8.696;2023-09-19T03:40:14;98480.50;;;18.99;99.54
22743;BME280;11538;48.884;8.696;2023-09-19T03:42:43;98473.44;;;18.98;99.74
22743;BME280;11538;48.884;8.696;2023-09-19T03:45:10;98469.16;;;19.00;99.28
22743;BME280;11538;48.884;8.696;2023-09-19T03:47:40;98475.81;;;18.99;100.00
22743;BME280;11538;48.884;8.696;2023-09-19T03:50:08;98464.72;;;18.96;100.00
22743;BME280;11538;48.884;8.696;2023-09-19T03:52:38;98459.56;;;18.94;100.00
22743;BME280;11538;48.884;8.696;2023-09-19T03:55:05;98471.38;;;18.95;100.00
22743;BME280;11538;48.884;8.696;2023-09-19T03:57:32;98473.25;;;18.91;100.00
22743;BME280;11538;48.884;8.696;2023-09-19T04:00:04;98468.50;;;18.88;100.00
22743;BME280;11538;48.884;8.696;2023-09-19T04:02:32;98468.50;;;18.88;100.00
22743;BME280;11538;48.884;8.696;2023-09-19T04:05:00;98468.06;;;18.85;100.00
22743;BME280;11538;48.884;8.696;2023-09-19T04:07:26;98473.47;;;18.82;100.00
22743;BME280;11538;48.884;8.696;2023-09-19T04:09:55;98469.53;;;18.79;100.00
22743;BME280;11538;48.884;8.696;2023-09-19T04:12:22;98465.97;;;18.79;100.00
22743;BME280;11538;48.884;8.696;2023-09-19T04:14:59;98480.13;;;18.81;100.00
22743;BME280;11538;48.884;8.696;2023-09-19T04:17:31;98483.59;;;18.78;100.00
22743;BME280;11538;48.884;8.696;2023-09-19T04:20:00;98483.13;;;18.72;100.00
22743;BME280;11538;48.884;8.696;2023-09-19T04:22:27;98483.13;;;18.72;100.00
22743;BME280;11538;48.884;8.696;2023-09-19T04:24:54;98487.78;;;18.71;100.00
22743;BME280;11538;48.884;8.696;2023-09-19T04:27:20;98491.69;;;18.70;100.00
22743;BME280;11538;48.884;8.696;2023-09-19T04:29:47;98510.88;;;18.67;100.00
22743;BME280;11538;48.884;8.696;2023-09-19T04:32:14;98507.53;;;18.58;100.00
22743;BME280;11538;48.884;8.696;2023-09-19T04:34:42;98515.44;;;18.43;100.00
22743;BME280;11538;48.884;8.696;2023-09-19T04:37:09;98519.34;;;18.42;100.00
22743;BME280;11538;48.884;8.696;2023-09-19T04:39:37;98518.47;;;18.38;100.00
22743;BME280;11538;48.884;8.696;2023-09-19T04:42:05;98524.97;;;18.30;100.00
22743;BME280;11538;48.884;8.696;2023-09-19T04:44:33;98525.09;;;18.17;100.00
22743;BME280;11538;48.884;8.696;2023-09-19T04:47:00;98524.66;;;18.15;100.00
22743;BME280;11538;48.884;8.696;2023-09-19T04:49:27;98534.47;;;18.16;100.00
22743;BME280;11538;48.884;8.696;2023-09-19T04:51:54;98531.22;;;18.10;100.00
22743;BME280;11538;48.884;8.696;2023-09-19T04:54:22;98531.06;;;18.03;100.00
22743;BME280;11538;48.884;8.696;2023-09-19T04:56:49;98549.97;;;17.92;100.00
22743;BME280;11538;48.884;8.696;2023-09-19T04:59:16;98556.25;;;17.77;100.00
22743;BME280;11538;48.884;8.696;2023-09-19T05:01:43;98552.25;;;17.74;100.00
22743;BME280;11538;48.884;8.696;2023-09-19T05:04:10;98560.59;;;17.78;100.00
22743;BME280;11538;48.884;8.696;2023-09-19T05:06:38;98560.94;;;17.76;100.00
22743;BME280;11538;48.884;8.696;2023-09-19T05:09:05;98562.06;;;17.75;100.00
22743;BME280;11538;48.884;8.696;2023-09-19T05:11:32;98572.53;;;17.69;100.00
22743;BME280;11538;48.884;8.696;2023-09-19T05:13:59;98577.81;;;17.78;100.00
22743;BME280;11538;48.884;8.696;2023-09-19T05:16:30;98579.78;;;17.78;100.00
22743;BME280;11538;48.884;8.696;2023-09-19T05:19:01;98579.34;;;17.76;100.00
22743;BME280;11538;48.884;8.696;2023-09-19T05:21:30;98587.31;;;17.81;100.00
22743;BME280;11538;48.884;8.696;2023-09-19T05:23:57;98586.16;;;17.82;100.00
22743;BME280;11538;48.884;8.696;2023-09-19T05:26:24;98588.97;;;17.86;100.00
22743;BME280;11538;48.884;8.696;2023-09-19T05:28:52;98592.88;;;17.84;100.00
22743;BME280;11538;48.884;8.696;2023-09-19T05:31:19;98592.44;;;17.82;100.00
22743;BME280;11538;48.884;8.696;2023-09-19T05:33:47;98593.06;;;17.76;100.00
22743;BME280;11538;48.884;8.696;2023-09-19T05:36:14;98598.63;;;17.79;100.00
22743;BME280;11538;48.884;8.696;2023-09-19T05:38:44;98602.44;;;17.75;100.00
22743;BME280;11538;48.884;8.696;2023-09-19T05:41:11;98595.34;;;17.74;100.00
22743;BME280;11538;48.884;8.696;2023-09-19T05:43:40;98602.00;;;17.73;100.00
22743;BME280;11538;48.884;8.696;2023-09-19T05:46:08;98617.19;;;17.70;100.00
22743;BME280;11538;48.884;8.696;2023-09-19T05:48:35;98616.75;;;17.68;100.00
22743;BME280;11538;48.884;8.696;2023-09-19T05:51:02;98617.63;;;17.72;100.00
22743;BME280;11538;48.884;8.696;2023-09-19T05:53:29;98619.22;;;17.73;100.00
22743;BME280;11538;48.884;8.696;2023-09-19T05:55:56;98617.19;;;17.70;100.00
22743;BME280;11538;48.884;8.696;2023-09-19T05:58:23;98631.97;;;17.65;100.00
22743;BME280;11538;48.884;8.696;2023-09-19T06:00:50;98616.31;;;17.66;100.00
22743;BME280;11538;48.884;8.696;2023-09-19T06:03:18;98630.00;;;17.66;100.00
22743;BME280;11538;48.884;8.696;2023-09-19T06:05:47;98628.53;;;17.68;100.00
22743;BME280;11538;48.884;8.696;2023-09-19T06:08:15;98634.22;;;17.76;100.00
22743;BME280;11538;48.884;8.696;2023-09-19T06:10:42;98635.44;;;17.78;100.00
22743;BME280;11538;48.884;8.696;2023-09-19T06:13:10;98632.34;;;17.80;100.00
22743;BME280;11538;48.884;8.696;2023-09-19T06:15:37;98639.31;;;17.77;100.00
22743;BME280;11538;48.884;8.696;2023-09-19T06:18:04;98642.06;;;17.77;100.00
22743;BME280;11538;48.884;8.696;2023-09-19T06:20:32;98642.50;;;17.79;100.00
22743;BME280;11538;48.884;8.696;2023-09-19T06:23:00;98643.78;;;17.82;100.00
22743;BME280;11538;48.884;8.696;2023-09-19T06:25:29;98649.00;;;17.87;100.00
22743;BME280;11538;48.884;8.696;2023-09-19T06:27:55;98646.06;;;17.80;100.00
22743;BME280;11538;48.884;8.696;2023-09-19T06:30:24;98641.91;;;17.86;100.00
22743;BME280;11538;48.884;8.696;2023-09-19T06:32:57;98628.91;;;17.83;100.00
22743;BME280;11538;48.884;8.696;2023-09-19T06:35:26;98637.03;;;17.79;100.00
22743;BME280;11538;48.884;8.696;2023-09-19T06:37:53;98640.59;;;17.80;100.00
22743;BME280;11538;48.884;8.696;2023-09-19T06:40:20;98640.31;;;17.85;100.00
22743;BME280;11538;48.884;8.696;2023-09-19T06:42:51;98648.28;;;17.90;100.00
22743;BME280;11538;48.884;8.696;2023-09-19T06:45:20;98649.44;;;17.89;100.00
22743;BME280;11538;48.884;8.696;2023-09-19T06:47:51;98661.69;;;17.92;100.00
22743;BME280;11538;48.884;8.696;2023-09-19T06:50:20;98652.19;;;17.89;100.00
22743;BME280;11538;48.884;8.696;2023-09-19T06:52:52;98662.28;;;17.85;100.00
22743;BME280;11538;48.884;8.696;2023-09-19T06:55:22;98674.47;;;17.88;100.00
22743;BME280;11538;48.884;8.696;2023-09-19T06:57:52;98674.13;;;17.89;100.00
22743;BME280;11538;48.884;8.696;2023-09-19T07:00:21;98664.31;;;17.88;100.00
22743;BME280;11538;48.884;8.696;2023-09-19T07:03:00;98674.94;;;17.90;100.00
22743;BME280;11538;48.884;8.696;2023-09-19T07:05:28;98685.13;;;17.89;100.00
22743;BME280;11538;48.884;8.696;2023-09-19T07:07:55;98687.53;;;17.91;100.00
22743;BME280;11538;48.884;8.696;2023-09-19T07:10:22;98687.72;;;17.98;100.00
22743;BME280;11538;48.884;8.696;2023-09-19T07:13:05;98689.31;;;17.99;100.00
22743;BME280;11538;48.884;8.696;2023-09-19T07:15:39;98690.34;;;17.94;100.00
22743;BME280;11538;48.884;8.696;2023-09-19T07:18:08;98683.72;;;17.95;100.00
22743;BME280;11538;48.884;8.696;2023-09-19T07:20:38;98698.56;;;17.94;100.00
22743;BME280;11538;48.884;8.696;2023-09-19T07:23:05;98686.72;;;17.90;100.00
22743;BME280;11538;48.884;8.696;2023-09-19T07:25:32;98688.66;;;17.90;100.00
22743;BME280;11538;48.884;8.696;2023-09-19T07:28:00;98692.75;;;17.96;100.00
22743;BME280;11538;48.884;8.696;2023-09-19T07:30:28;98694.91;;;18.03;100.00
22743;BME280;11538;48.884;8.696;2023-09-19T07:32:55;98699.94;;;18.01;100.00
22743;BME280;11538;48.884;8.696;2023-09-19T07:35:22;98699.34;;;18.07;100.00
22743;BME280;11538;48.884;8.696;2023-09-19T07:37:49;98699.09;;;18.12;100.00
22743;BME280;11538;48.884;8.696;2023-09-19T07:40:19;98699.88;;;18.13;100.00
22743;BME280;11538;48.884;8.696;2023-09-19T07:42:47;98705.03;;;18.15;100.00
22743;BME280;11538;48.884;8.696;2023-09-19T07:45:14;98700.88;;;18.21;100.00
22743;BME280;11538;48.884;8.696;2023-09-19T07:47:52;98701.56;;;18.34;100.00
22743;BME280;11538;48.884;8.696;2023-09-19T07:50:19;98709.63;;;18.42;99.67
22743;BME280;11538;48.884;8.696;2023-09-19T07:52:49;98712.72;;;18.57;99.40
22743;BME280;11538;48.884;8.696;2023-09-19T07:55:18;98708.94;;;18.62;99.35
22743;BME280;11538;48.884;8.696;2023-09-19T07:57:46;98717.78;;;18.71;96.95
22743;BME280;11538;48.884;8.696;2023-09-19T08:00:14;98724.31;;;18.82;95.87
22743;BME280;11538;48.884;8.696;2023-09-19T08:02:42;98729.72;;;18.95;93.46
22743;BME280;11538;48.884;8.696;2023-09-19T08:05:12;98727.75;;;19.11;91.64
22743;BME280;11538;48.884;8.696;2023-09-19T08:07:45;98721.25;;;19.20;90.64
22743;BME280;11538;48.884;8.696;2023-09-19T08:10:15;98720.84;;;19.37;89.71
22743;BME280;11538;48.884;8.696;2023-09-19T08:12:46;98722.69;;;19.49;88.59
22743;BME280;11538;48.884;8.696;2023-09-19T08:15:19;98723.47;;;19.50;87.90
22743;BME280;11538;48.884;8.696;2023-09-19T08:17:47;98731.66;;;19.66;87.49
22743;BME280;11538;48.884;8.696;2023-09-19T08:20:15;98730.69;;;19.78;86.69
22743;BME280;11538;48.884;8.696;2023-09-19T08:22:50;98730.28;;;19.95;85.38
22743;BME280;11538;48.884;8.696;2023-09-19T08:25:27;98738.00;;;20.09;83.45
22743;BME280;11538;48.884;8.696;2023-09-19T08:27:55;98742.63;;;20.25;83.62
22743;BME280;11538;48.884;8.696;2023-09-19T08:30:25;98732.34;;;20.45;81.50
22743;BME280;11538;48.884;8.696;2023-09-19T08:33:01;98738.72;;;20.49;81.36
22743;BME280;11538;48.884;8.696;2023-09-19T08:35:28;98725.16;;;20.40;81.72
22743;BME280;11538;48.884;8.696;2023-09-19T08:37:55;98735.75;;;20.62;80.67
22743;BME280;11538;48.884;8.696;2023-09-19T08:40:23;98737.78;;;20.65;80.12
22743;BME280;11538;48.884;8.696;2023-09-19T08:42:56;98737.47;;;20.93;79.71
22743;BME280;11538;48.884;8.696;2023-09-19T08:45:24;98749.06;;;21.06;77.92
22743;BME280;11538;48.884;8.696;2023-09-19T08:48:23;98750.00;;;20.87;78.11
22743;BME280;11538;48.884;8.696;2023-09-19T08:51:11;98746.63;;;21.01;77.35
22743;BME280;11538;48.884;8.696;2023-09-19T08:54:03;98751.63;;;20.92;76.71
22743;BME280;11538;48.884;8.696;2023-09-19T08:56:33;98751.03;;;20.79;76.00
22743;BME280;11538;48.884;8.696;2023-09-19T08:59:03;98755.44;;;20.83;76.26
22743;BME280;11538;48.884;8.696;2023-09-19T09:01:31;98755.59;;;20.71;76.96
22743;BME280;11538;48.884;8.696;2023-09-19T09:04:02;98753.09;;;20.62;76.93
22743;BME280;11538;48.884;8.696;2023-09-19T09:06:29;98746.16;;;20.72;76.68
22743;BME280;11538;48.884;8.696;2023-09-19T09:08:57;98752.63;;;20.80;76.97
22743;BME280;11538;48.884;8.696;2023-09-19T09:11:24;98750.94;;;20.75;76.52
22743;BME280;11538;48.884;8.696;2023-09-19T09:13:57;98745.56;;;20.82;75.20
22743;BME280;11538;48.884;8.696;2023-09-19T09:16:25;98755.44;;;21.10;74.60
22743;BME280;11538;48.884;8.696;2023-09-19T09:18:53;98759.59;;;21.24;74.33
22743;BME280;11538;48.884;8.696;2023-09-19T09:21:25;98759.28;;;21.29;73.88
22743;BME280;11538;48.884;8.696;2023-09-19T09:23:52;98754.94;;;21.28;73.27
22743;BME280;11538;48.884;8.696;2023-09-19T09:29:06;98756.47;;;21.56;72.39
22743;BME280;11538;48.884;8.696;2023-09-19T09:31:33;98761.78;;;21.14;72.92
22743;BME280;11538;48.884;8.696;2023-09-19T09:34:01;98750.03;;;20.91;74.04
22743;BME280;11538;48.884;8.696;2023-09-19T09:36:37;98758.56;;;20.82;73.98
22743;BME280;11538;48.884;8.696;2023-09-19T09:39:04;98749.13;;;20.83;74.05
22743;BME280;11538;48.884;8.696;2023-09-19T09:41:51;98763.81;;;20.91;73.95
22743;BME280;11538;48.884;8.696;2023-09-19T09:44:19;98760.50;;;20.81;73.74
22743;BME280;11538;48.884;8.696;2023-09-19T09:46:48;98747.75;;;21.23;72.74
22743;BME280;11538;48.884;8.696;2023-09-19T09:49:27;98748.56;;;21.85;71.46
22743;BME280;11538;48.884;8.696;2023-09-19T09:52:06;98767.06;;;21.81;70.18
22743;BME280;11538;48.884;8.696;2023-09-19T09:54:38;98763.75;;;21.41;71.43
22743;BME280;11538;48.884;8.696;2023-09-19T09:57:08;98758.19;;;21.10;72.06
22743;BME280;11538;48.884;8.696;2023-09-19T09:59:55;98756.78;;;20.93;71.79
22743;BME280;11538;48.884;8.696;2023-09-19T10:02:30;98762.78;;;20.75;72.02
22743;BME280;11538;48.884;8.696;2023-09-19T10:05:15;98766.56;;;20.67;72.96
22743;BME280;11538;48.884;8.696;2023-09-19T10:08:11;98758.50;;;20.78;73.33
22743;BME280;11538;48.884;8.696;2023-09-19T10:10:46;98761.78;;;20.87;73.35
22743;BME280;11538;48.884;8.696;2023-09-19T10:13:20;98758.84;;;21.00;72.01
22743;BME280;11538;48.884;8.696;2023-09-19T10:15:54;98763.50;;;20.96;70.52
22743;BME280;11538;48.884;8.696;2023-09-19T10:18:25;98759.78;;;20.84;70.04
22743;BME280;11538;48.884;8.696;2023-09-19T10:20:53;98756.28;;;20.64;70.94
22743;BME280;11538;48.884;8.696;2023-09-19T10:23:22;98768.06;;;20.61;72.05
22743;BME280;11538;48.884;8.696;2023-09-19T10:25:54;98753.00;;;20.55;71.91
22743;BME280;11538;48.884;8.696;2023-09-19T10:28:22;98758.34;;;20.48;71.83
22743;BME280;11538;48.884;8.696;2023-09-19T10:30:52;98759.78;;;20.61;71.62
22743;BME280;11538;48.884;8.696;2023-09-19T10:33:25;98757.34;;;20.56;72.99
22743;BME280;11538;48.884;8.696;2023-09-19T10:35:54;98766.25;;;20.49;72.16
22743;BME280;11538;48.884;8.696;2023-09-19T10:38:26;98765.28;;;20.38;73.06
22743;BME280;11538;48.884;8.696;2023-09-19T10:40:56;98759.63;;;20.77;72.70
22743;BME280;11538;48.884;8.696;2023-09-19T10:43:32;98769.34;;;21.44;71.27
22743;BME280;11538;48.884;8.696;2023-09-19T10:46:07;98766.72;;;21.86;68.63
22743;BME280;11538;48.884;8.696;2023-09-19T10:48:39;98764.63;;;21.75;68.74
22743;BME280;11538;48.884;8.696;2023-09-19T10:51:12;98771.69;;;22.07;68.21
22743;BME280;11538;48.884;8.696;2023-09-19T10:53:50;98774.03;;;22.84;65.75
22743;BME280;11538;48.884;8.696;2023-09-19T10:56:30;98767.25;;;23.30;63.36
22743;BME280;11538;48.884;8.696;2023-09-19T10:59:16;98761.09;;;23.62;62.80
22743;BME280;11538;48.884;8.696;2023-09-19T11:01:56;98754.59;;;24.25;61.59
22743;BME280;11538;48.884;8.696;2023-09-19T11:04:33;98751.84;;;24.61;59.79
22743;BME280;11538;48.884;8.696;2023-09-19T11:07:08;98761.38;;;24.82;58.31
22743;BME280;11538;48.884;8.696;2023-09-19T11:12:48;98757.00;;;25.06;54.09
22743;BME280;11538;48.884;8.696;2023-09-19T11:26:46;98738.94;;;25.87;47.52
22743;BME280;11538;48.884;8.696;2023-09-19T11:31:53;98734.81;;;24.52;48.14
22743;BME280;11538;48.884;8.696;2023-09-19T11:39:38;98735.97;;;24.47;49.97
22743;BME280;11538;48.884;8.696;2023-09-19T11:42:45;98746.22;;;26.34;45.96
22743;BME280;11538;48.884;8.696;2023-09-19T11:48:24;98724.34;;;27.93;42.14
22743;BME280;11538;48.884;8.696;2023-09-19T11:50:55;98722.28;;;28.52;40.57
22743;BME280;11538;48.884;8.696;2023-09-19T11:53:31;98725.00;;;28.04;40.63
22743;BME280;11538;48.884;8.696;2023-09-19T11:55:59;98717.88;;;26.50;44.63
22743;BME280;11538;48.884;8.696;2023-09-19T11:58:28;98718.41;;;25.59;45.24
22743;BME280;11538;48.884;8.696;2023-09-19T12:00:58;98719.16;;;25.67;44.79
22743;BME280;11538;48.884;8.696;2023-09-19T12:03:30;98712.00;;;26.90;42.40
22743;BME280;11538;48.884;8.696;2023-09-19T12:05:59;98711.31;;;26.75;42.70
22743;BME280;11538;48.884;8.696;2023-09-19T12:08:26;98695.81;;;25.57;45.35
22743;BME280;11538;48.884;8.696;2023-09-19T12:10:54;98696.00;;;24.74;48.38
22743;BME280;11538;48.884;8.696;2023-09-19T12:13:22;98702.72;;;24.26;49.59
22743;BME280;11538;48.884;8.696;2023-09-19T12:15:49;98698.28;;;23.92;50.72
22743;BME280;11538;48.884;8.696;2023-09-19T12:18:30;98708.66;;;25.00;49.18
22743;BME280;11538;48.884;8.696;2023-09-19T12:20:57;98700.78;;;26.97;44.51
22743;BME280;11538;48.884;8.696;2023-09-19T12:23:25;98700.38;;;27.68;42.51
22743;BME280;11538;48.884;8.696;2023-09-19T12:25:54;98697.66;;;27.64;42.10
22743;BME280;11538;48.884;8.696;2023-09-19T12:28:27;98700.69;;;27.08;43.36
22743;BME280;11538;48.884;8.696;2023-09-19T12:31:08;98694.31;;;28.31;40.55
22743;BME280;11538;48.884;8.696;2023-09-19T12:33:35;98691.69;;;29.16;39.03
22743;BME280;11538;48.884;8.696;2023-09-19T12:36:23;98687.22;;;28.74;39.21
22743;BME280;11538;48.884;8.696;2023-09-19T12:38:52;98685.25;;;28.75;39.36
22743;BME280;11538;48.884;8.696;2023-09-19T12:41:20;98687.00;;;28.89;38.49
22743;BME280;11538;48.884;8.696;2023-09-19T12:43:49;98686.66;;;27.84;40.27
22743;BME280;11538;48.884;8.696;2023-09-19T12:46:21;98680.34;;;27.49;40.91
22743;BME280;11538;48.884;8.696;2023-09-19T12:49:17;98672.16;;;26.54;42.52
22743;BME280;11538;48.884;8.696;2023-09-19T12:51:47;98671.91;;;27.84;39.02
22743;BME280;11538;48.884;8.696;2023-09-19T12:54:15;98666.81;;;27.13;40.55
22743;BME280;11538;48.884;8.696;2023-09-19T12:56:46;98667.66;;;26.68;40.81
22743;BME280;11538;48.884;8.696;2023-09-19T12:59:15;98664.00;;;28.34;38.39
22743;BME280;11538;48.884;8.696;2023-09-19T13:01:43;98664.03;;;29.22;36.85
22743;BME280;11538;48.884;8.696;2023-09-19T13:04:18;98662.22;;;29.72;35.96
22743;BME280;11538;48.884;8.696;2023-09-19T13:06:47;98651.78;;;28.95;37.07
22743;BME280;11538;48.884;8.696;2023-09-19T13:09:18;98657.75;;;29.17;37.14
22743;BME280;11538;48.884;8.696;2023-09-19T13:11:48;98662.06;;;29.79;35.86
22743;BME280;11538;48.884;8.696;2023-09-19T13:14:25;98663.94;;;30.02;34.99
22743;BME280;11538;48.884;8.696;2023-09-19T13:17:07;98669.44;;;30.39;34.23
22743;BME280;11538;48.884;8.696;2023-09-19T13:19:47;98666.09;;;30.44;33.05
22743;BME280;11538;48.884;8.696;2023-09-19T13:22:44;98656.00;;;30.51;32.56
22743;BME280;11538;48.884;8.696;2023-09-19T13:25:17;98655.25;;;30.46;33.22
22743;BME280;11538;48.884;8.696;2023-09-19T13:27:54;98651.28;;;30.64;33.39
22743;BME280;11538;48.884;8.696;2023-09-19T13:30:26;98663.03;;;30.72;33.14
22743;BME280;11538;48.884;8.696;2023-09-19T13:33:08;98641.09;;;30.70;32.88
22743;BME280;11538;48.884;8.696;2023-09-19T13:35:38;98652.13;;;30.44;33.78
22743;BME280;11538;48.884;8.696;2023-09-19T13:38:07;98648.19;;;30.58;33.26
22743;BME280;11538;48.884;8.696;2023-09-19T13:40:40;98638.16;;;30.61;33.06
22743;BME280;11538;48.884;8.696;2023-09-19T13:43:09;98641.38;;;30.43;33.41
22743;BME280;11538;48.884;8.696;2023-09-19T13:45:37;98638.50;;;30.63;33.31
22743;BME280;11538;48.884;8.696;2023-09-19T13:48:05;98646.19;;;30.42;33.61
22743;BME280;11538;48.884;8.696;2023-09-19T13:50:32;98643.03;;;30.40;33.17
22743;BME280;11538;48.884;8.696;2023-09-19T13:52:59;98625.91;;;29.88;33.67